sensor_id;sensor_type;location;lat;lon;timestamp;temperature;humidity
47616;DHT22;69146;52.266;7.000;2024-03-17T00:01:33;4.20;99.90
47616;DHT22;69146;52.266;7.000;2024-03-17T00:04:17;4.20;99.90
47616;DHT22;69146;52.266;7.000;2024-03-17T00:07:02;4.20;99.90
47616;DHT22;69146;52.266;7.000;2024-03-17T00:09:49;4.20;99.90
47616;DHT22;69146;52.266;7.000;2024-03-17T00:12:33;4.20;99.90
47616;DHT22;69146;52.266;7.000;2024-03-17T00:15:18;4.10;99.90
47616;DHT22;69146;52.266;7.000;2024-03-17T00:18:02;4.20;99.90
47616;DHT22;69146;52.266;7.000;2024-03-17T00:20:47;4.20;99.90
47616;DHT22;69146;52.266;7.000;2024-03-17T00:23:32;4.20;99.90
47616;DHT22;69146;52.266;7.000;2024-03-17T00:26:17;4.20;99.90
47616;DHT22;69146;52.266;7.000;2024-03-17T00:29:03;4.10;99.90
47616;DHT22;69146;52.266;7.000;2024-03-17T00:31:48;4.20;99.90
47616;DHT22;69146;52.266;7.000;2024-03-17T00:34:32;4.20;99.90
47616;DHT22;69146;52.266;7.000;2024-03-17T00:37:17;4.20;99.90
47616;DHT22;69146;52.266;7.000;2024-03-17T00:40:01;4.20;99.90
47616;DHT22;69146;52.266;7.000;2024-03-17T00:42:47;4.20;99.90
47616;DHT22;69146;52.266;7.000;2024-03-17T00:45:32;4.10;99.90
47616;DHT22;69146;52.266;7.000;2024-03-17T00:48:17;4.10;99.90
47616;DHT22;69146;52.266;7.000;2024-03-17T00:51:01;4.10;99.90
47616;DHT22;69146;52.266;7.000;2024-03-17T00:53:46;4.10;99.90
47616;DHT22;69146;52.266;7.000;2024-03-17T00:56:31;4.00;99.90
47616;DHT22;69146;52.266;7.000;2024-03-17T00:59:17;4.00;99.90
47616;DHT22;69146;52.266;7.000;2024-03-17T01:02:01;4.10;99.90
47616;DHT22;69146;52.266;7.000;2024-03-17T01:04:46;4.00;99.90
47616;DHT22;69146;52.266;7.000;2024-03-17T01:07:31;4.00;99.90
47616;DHT22;69146;52.266;7.000;2024-03-17T01:10:15;3.90;99.90
47616;DHT22;69146;52.266;7.000;2024-03-17T01:13:00;4.00;99.90
47616;DHT22;69146;52.266;7.000;2024-03-17T01:15:45;4.00;99.90
47616;DHT22;69146;52.266;7.000;2024-03-17T01:18:30;3.90;99.90
47616;DHT22;69146;52.266;7.000;2024-03-17T01:21:14;4.00;99.90
47616;DHT22;69146;52.266;7.000;2024-03-17T01:23:59;3.90;99.90
47616;DHT22;69146;52.266;7.000;2024-03-17T01:26:44;3.90;99.90
47616;DHT22;69146;52.266;7.000;2024-03-17T01:29:28;3.90;99.90
47616;DHT22;69146;52.266;7.000;2024-03-17T01:32:14;3.80;99.90
47616;DHT22;69146;52.266;7.000;2024-03-17T01:34:59;3.80;99.90
47616;DHT22;69146;52.266;7.000;2024-03-17T01:37:43;3.80;99.90
47616;DHT22;69146;52.266;7.000;2024-03-17T01:40:28;3.80;99.90
47616;DHT22;69146;52.266;7.000;2024-03-17T01:43:12;3.80;99.90
47616;DHT22;69146;52.266;7.000;2024-03-17T01:45:57;3.80;99.90
47616;DHT22;69146;52.266;7.000;2024-03-17T01:48:44;3.70;99.90
47616;DHT22;69146;52.266;7.000;2024-03-17T01:51:29;3.70;99.90
47616;DHT22;69146;52.266;7.000;2024-03-17T01:54:14;3.70;99.90
47616;DHT22;69146;52.266;7.000;2024-03-17T01:56:59;3.60;99.90
47616;DHT22;69146;52.266;7.000;2024-03-17T01:59:43;3.60;99.90
47616;DHT22;69146;52.266;7.000;2024-03-17T02:02:28;3.60;99.90
47616;DHT22;69146;52.266;7.000;2024-03-17T02:05:14;3.50;99.90
47616;DHT22;69146;52.266;7.000;2024-03-17T02:07:58;3.40;99.90
47616;DHT22;69146;52.266;7.000;2024-03-17T02:10:43;3.40;99.90
47616;DHT22;69146;52.266;7.000;2024-03-17T02:13:27;3.30;99.90
47616;DHT22;69146;52.266;7.000;2024-03-17T02:16:12;3.30;99.90
47616;DHT22;69146;52.266;7.000;2024-03-17T02:18:56;3.30;99.90
47616;DHT22;69146;52.266;7.000;2024-03-17T02:21:43;3.20;99.90
47616;DHT22;69146;52.266;7.000;2024-03-17T02:24:28;3.20;99.90
47616;DHT22;69146;52.266;7.000;2024-03-17T02:27:13;3.20;99.90
47616;DHT22;69146;52.266;7.000;2024-03-17T02:29:57;3.20;99.90
47616;DHT22;69146;52.266;7.000;2024-03-17T02:32:42;3.20;99.90
47616;DHT22;69146;52.266;7.000;2024-03-17T02:35:26;3.20;99.90
47616;DHT22;69146;52.266;7.000;2024-03-17T02:38:14;3.20;99.90
47616;DHT22;69146;52.266;7.000;2024-03-17T02:41:20;3.10;99.90
47616;DHT22;69146;52.266;7.000;2024-03-17T02:44:05;3.10;99.90
47616;DHT22;69146;52.266;7.000;2024-03-17T02:46:50;3.10;99.90
47616;DHT22;69146;52.266;7.000;2024-03-17T02:49:34;3.10;99.90
47616;DHT22;69146;52.266;7.000;2024-03-17T02:52:21;3.10;99.90
47616;DHT22;69146;52.266;7.000;2024-03-17T02:55:06;3.00;99.90
47616;DHT22;69146;52.266;7.000;2024-03-17T02:57:52;3.00;99.90
47616;DHT22;69146;52.266;7.000;2024-03-17T03:00:36;3.00;99.90
47616;DHT22;69146;52.266;7.000;2024-03-17T03:03:21;2.90;99.90
47616;DHT22;69146;52.266;7.000;2024-03-17T03:06:06;3.00;99.90
47616;DHT22;69146;52.266;7.000;2024-03-17T03:08:53;2.90;99.90
47616;DHT22;69146;52.266;7.000;2024-03-17T03:11:38;2.90;99.90
47616;DHT22;69146;52.266;7.000;2024-03-17T03:14:23;2.90;99.90
47616;DHT22;69146;52.266;7.000;2024-03-17T03:17:08;2.90;99.90
47616;DHT22;69146;52.266;7.000;2024-03-17T03:19:52;2.90;99.90
47616;DHT22;69146;52.266;7.000;2024-03-17T03:22:37;2.80;99.90
47616;DHT22;69146;52.266;7.000;2024-03-17T03:25:21;2.80;99.90
47616;DHT22;69146;52.266;7.000;2024-03-17T03:28:05;2.80;99.90
47616;DHT22;69146;52.266;7.000;2024-03-17T03:30:51;2.70;99.90
47616;DHT22;69146;52.266;7.000;2024-03-17T03:33:35;2.70;99.90
47616;DHT22;69146;52.266;7.000;2024-03-17T03:36:20;2.70;99.90
47616;DHT22;69146;52.266;7.000;2024-03-17T03:39:05;2.70;99.90
47616;DHT22;69146;52.266;7.000;2024-03-17T03:41:49;2.70;99.90
47616;DHT22;69146;52.266;7.000;2024-03-17T03:44:34;2.70;99.90
47616;DHT22;69146;52.266;7.000;2024-03-17T03:47:19;2.70;99.90
47616;DHT22;69146;52.266;7.000;2024-03-17T03:50:04;2.80;99.90
47616;DHT22;69146;52.266;7.000;2024-03-17T03:52:49;2.70;99.90
47616;DHT22;69146;52.266;7.000;2024-03-17T03:55:34;2.80;99.90
47616;DHT22;69146;52.266;7.000;2024-03-17T03:58:18;2.70;99.90
47616;DHT22;69146;52.266;7.000;2024-03-17T04:01:03;2.80;99.90
47616;DHT22;69146;52.266;7.000;2024-03-17T04:03:49;2.90;99.90
47616;DHT22;69146;52.266;7.000;2024-03-17T04:06:36;2.90;99.90
47616;DHT22;69146;52.266;7.000;2024-03-17T04:09:21;3.00;99.90
47616;DHT22;69146;52.266;7.000;2024-03-17T04:12:06;3.00;99.90
47616;DHT22;69146;52.266;7.000;2024-03-17T04:14:50;3.00;99.90
47616;DHT22;69146;52.266;7.000;2024-03-17T04:17:39;3.00;99.90
47616;DHT22;69146;52.266;7.000;2024-03-17T04:20:25;3.00;99.90
47616;DHT22;69146;52.266;7.000;2024-03-17T04:23:10;3.10;99.90
47616;DHT22;69146;52.266;7.000;2024-03-17T04:25:54;3.00;99.90
47616;DHT22;69146;52.266;7.000;2024-03-17T04:28:38;3.00;99.90
47616;DHT22;69146;52.266;7.000;2024-03-17T04:31:24;3.00;99.90
47616;DHT22;69146;52.266;7.000;2024-03-17T04:34:09;3.10;99.90
47616;DHT22;69146;52.266;7.000;2024-03-17T04:36:54;3.10;99.90
47616;DHT22;69146;52.266;7.000;2024-03-17T04:39:39;3.20;99.90
47616;DHT22;69146;52.266;7.000;2024-03-17T04:42:23;3.20;99.90
47616;DHT22;69146;52.266;7.000;2024-03-17T04:45:08;3.20;99.90
47616;DHT22;69146;52.266;7.000;2024-03-17T04:47:53;3.20;99.90
47616;DHT22;69146;52.266;7.000;2024-03-17T04:50:38;3.20;99.90
47616;DHT22;69146;52.266;7.000;2024-03-17T04:53:24;3.30;99.90
47616;DHT22;69146;52.266;7.000;2024-03-17T04:56:08;3.30;99.90
47616;DHT22;69146;52.266;7.000;2024-03-17T04:58:52;3.40;99.90
47616;DHT22;69146;52.266;7.000;2024-03-17T05:01:37;3.30;99.90
47616;DHT22;69146;52.266;7.000;2024-03-17T05:04:22;3.40;99.90
47616;DHT22;69146;52.266;7.000;2024-03-17T05:07:06;3.40;99.90
47616;DHT22;69146;52.266;7.000;2024-03-17T05:09:52;3.40;99.90
47616;DHT22;69146;52.266;7.000;2024-03-17T05:12:36;3.40;99.90
47616;DHT22;69146;52.266;7.000;2024-03-17T05:15:21;3.50;99.90
47616;DHT22;69146;52.266;7.000;2024-03-17T05:18:05;3.50;99.90
47616;DHT22;69146;52.266;7.000;2024-03-17T05:20:56;3.40;99.90
47616;DHT22;69146;52.266;7.000;2024-03-17T05:23:40;3.40;99.90
47616;DHT22;69146;52.266;7.000;2024-03-17T05:26:27;3.40;99.90
47616;DHT22;69146;52.266;7.000;2024-03-17T05:29:11;3.30;99.90
47616;DHT22;69146;52.266;7.000;2024-03-17T05:31:55;3.30;99.90
47616;DHT22;69146;52.266;7.000;2024-03-17T05:34:40;3.20;99.90
47616;DHT22;69146;52.266;7.000;2024-03-17T05:37:24;3.20;99.90
47616;DHT22;69146;52.266;7.000;2024-03-17T05:40:09;3.20;99.90
47616;DHT22;69146;52.266;7.000;2024-03-17T05:42:57;3.20;99.90
47616;DHT22;69146;52.266;7.000;2024-03-17T05:45:42;3.20;99.90
47616;DHT22;69146;52.266;7.000;2024-03-17T05:48:28;3.20;99.90
47616;DHT22;69146;52.266;7.000;2024-03-17T05:51:12;3.10;99.90
47616;DHT22;69146;52.266;7.000;2024-03-17T05:53:57;3.10;99.90
47616;DHT22;69146;52.266;7.000;2024-03-17T05:56:43;3.00;99.90
47616;DHT22;69146;52.266;7.000;2024-03-17T05:59:29;3.00;99.90
47616;DHT22;69146;52.266;7.000;2024-03-17T06:02:13;3.00;99.90
47616;DHT22;69146;52.266;7.000;2024-03-17T06:04:59;3.00;99.90
47616;DHT22;69146;52.266;7.000;2024-03-17T06:07:48;3.00;99.90
47616;DHT22;69146;52.266;7.000;2024-03-17T06:10:32;3.00;99.90
47616;DHT22;69146;52.266;7.000;2024-03-17T06:13:17;3.00;99.90
47616;DHT22;69146;52.266;7.000;2024-03-17T06:16:03;3.00;99.90
47616;DHT22;69146;52.266;7.000;2024-03-17T06:18:49;3.00;99.90
47616;DHT22;69146;52.266;7.000;2024-03-17T06:21:36;3.10;99.90
47616;DHT22;69146;52.266;7.000;2024-03-17T06:24:23;3.20;99.90
47616;DHT22;69146;52.266;7.000;2024-03-17T06:27:09;3.20;99.90
47616;DHT22;69146;52.266;7.000;2024-03-17T06:29:53;3.20;99.90
47616;DHT22;69146;52.266;7.000;2024-03-17T06:32:41;3.30;99.90
47616;DHT22;69146;52.266;7.000;2024-03-17T06:35:25;3.30;99.90
47616;DHT22;69146;52.266;7.000;2024-03-17T06:38:10;3.40;99.90
47616;DHT22;69146;52.266;7.000;2024-03-17T06:40:55;3.40;99.90
47616;DHT22;69146;52.266;7.000;2024-03-17T06:43:39;3.50;99.90
47616;DHT22;69146;52.266;7.000;2024-03-17T06:46:24;3.60;99.90
47616;DHT22;69146;52.266;7.000;2024-03-17T06:49:10;3.70;99.90
47616;DHT22;69146;52.266;7.000;2024-03-17T06:51:55;3.70;99.90
47616;DHT22;69146;52.266;7.000;2024-03-17T06:54:40;3.80;99.90
47616;DHT22;69146;52.266;7.000;2024-03-17T06:57:24;4.00;99.90
47616;DHT22;69146;52.266;7.000;2024-03-17T07:00:09;4.20;99.90
47616;DHT22;69146;52.266;7.000;2024-03-17T07:02:57;4.30;99.90
47616;DHT22;69146;52.266;7.000;2024-03-17T07:05:47;4.60;99.90
47616;DHT22;69146;52.266;7.000;2024-03-17T07:08:37;4.70;99.90
47616;DHT22;69146;52.266;7.000;2024-03-17T07:11:22;4.90;99.90
47616;DHT22;69146;52.266;7.000;2024-03-17T07:14:08;5.00;99.90
47616;DHT22;69146;52.266;7.000;2024-03-17T07:16:53;5.20;99.90
47616;DHT22;69146;52.266;7.000;2024-03-17T07:19:37;5.30;99.90
47616;DHT22;69146;52.266;7.000;2024-03-17T07:22:23;5.40;99.90
47616;DHT22;69146;52.266;7.000;2024-03-17T07:25:10;5.40;99.90
47616;DHT22;69146;52.266;7.000;2024-03-17T07:27:55;5.50;99.90
47616;DHT22;69146;52.266;7.000;2024-03-17T07:30:45;5.60;99.90
47616;DHT22;69146;52.266;7.000;2024-03-17T07:33:30;5.80;99.90
47616;DHT22;69146;52.266;7.000;2024-03-17T07:36:14;5.90;99.90
47616;DHT22;69146;52.266;7.000;2024-03-17T07:39:00;6.10;99.90
47616;DHT22;69146;52.266;7.000;2024-03-17T07:41:49;6.30;99.90
47616;DHT22;69146;52.266;7.000;2024-03-17T07:44:33;6.50;99.90
47616;DHT22;69146;52.266;7.000;2024-03-17T07:47:18;6.70;99.90
47616;DHT22;69146;52.266;7.000;2024-03-17T07:50:03;6.90;99.90
47616;DHT22;69146;52.266;7.000;2024-03-17T07:52:49;7.10;99.90
47616;DHT22;69146;52.266;7.000;2024-03-17T07:55:35;7.40;99.90
47616;DHT22;69146;52.266;7.000;2024-03-17T07:58:19;7.60;99.90
47616;DHT22;69146;52.266;7.000;2024-03-17T08:01:04;7.80;99.90
47616;DHT22;69146;52.266;7.000;2024-03-17T08:03:48;7.90;99.90
47616;DHT22;69146;52.266;7.000;2024-03-17T08:06:38;7.90;99.90
47616;DHT22;69146;52.266;7.000;2024-03-17T08:09:23;8.00;99.90
47616;DHT22;69146;52.266;7.000;2024-03-17T08:12:08;8.10;99.90
47616;DHT22;69146;52.266;7.000;2024-03-17T08:14:53;8.30;99.90
47616;DHT22;69146;52.266;7.000;2024-03-17T08:17:37;8.40;99.90
47616;DHT22;69146;52.266;7.000;2024-03-17T08:20:22;8.60;99.90
47616;DHT22;69146;52.266;7.000;2024-03-17T08:23:07;8.70;99.90
47616;DHT22;69146;52.266;7.000;2024-03-17T08:25:52;8.80;99.90
47616;DHT22;69146;52.266;7.000;2024-03-17T08:28:38;8.80;99.90
47616;DHT22;69146;52.266;7.000;2024-03-17T08:31:22;8.80;99.90
47616;DHT22;69146;52.266;7.000;2024-03-17T08:34:07;8.80;99.90
47616;DHT22;69146;52.266;7.000;2024-03-17T08:36:51;8.70;99.90
47616;DHT22;69146;52.266;7.000;2024-03-17T08:39:36;8.70;99.90
47616;DHT22;69146;52.266;7.000;2024-03-17T08:42:20;8.80;99.90
47616;DHT22;69146;52.266;7.000;2024-03-17T08:45:07;8.80;99.90
47616;DHT22;69146;52.266;7.000;2024-03-17T08:47:52;8.80;99.90
47616;DHT22;69146;52.266;7.000;2024-03-17T08:50:37;8.80;99.90
47616;DHT22;69146;52.266;7.000;2024-03-17T08:53:21;8.80;99.90
47616;DHT22;69146;52.266;7.000;2024-03-17T08:56:06;8.80;99.90
47616;DHT22;69146;52.266;7.000;2024-03-17T08:58:53;8.80;99.90
47616;DHT22;69146;52.266;7.000;2024-03-17T09:01:39;8.80;99.90
47616;DHT22;69146;52.266;7.000;2024-03-17T09:04:24;8.80;99.90
47616;DHT22;69146;52.266;7.000;2024-03-17T09:07:09;8.80;99.90
47616;DHT22;69146;52.266;7.000;2024-03-17T09:09:53;8.90;99.90
47616;DHT22;69146;52.266;7.000;2024-03-17T09:12:37;8.90;99.90
47616;DHT22;69146;52.266;7.000;2024-03-17T09:15:22;8.90;99.90
47616;DHT22;69146;52.266;7.000;2024-03-17T09:18:08;8.90;99.90
47616;DHT22;69146;52.266;7.000;2024-03-17T09:20:56;9.00;99.90
47616;DHT22;69146;52.266;7.000;2024-03-17T09:23:41;9.20;99.90
47616;DHT22;69146;52.266;7.000;2024-03-17T09:26:25;9.50;99.90
47616;DHT22;69146;52.266;7.000;2024-03-17T09:29:09;9.60;99.90
47616;DHT22;69146;52.266;7.000;2024-03-17T09:31:54;9.80;99.90
47616;DHT22;69146;52.266;7.000;2024-03-17T09:34:40;9.90;99.90
47616;DHT22;69146;52.266;7.000;2024-03-17T09:37:24;10.00;99.90
47616;DHT22;69146;52.266;7.000;2024-03-17T09:40:11;10.00;99.90
47616;DHT22;69146;52.266;7.000;2024-03-17T09:42:57;10.00;99.90
47616;DHT22;69146;52.266;7.000;2024-03-17T09:45:42;10.00;99.90
47616;DHT22;69146;52.266;7.000;2024-03-17T09:48:27;10.20;99.90
47616;DHT22;69146;52.266;7.000;2024-03-17T09:51:18;10.40;99.90
47616;DHT22;69146;52.266;7.000;2024-03-17T09:54:05;10.60;99.90
47616;DHT22;69146;52.266;7.000;2024-03-17T09:56:49;10.80;99.90
47616;DHT22;69146;52.266;7.000;2024-03-17T09:59:35;10.80;99.90
47616;DHT22;69146;52.266;7.000;2024-03-17T10:02:19;10.80;99.90
47616;DHT22;69146;52.266;7.000;2024-03-17T10:05:04;11.00;99.90
47616;DHT22;69146;52.266;7.000;2024-03-17T10:07:50;11.20;99.90
47616;DHT22;69146;52.266;7.000;2024-03-17T10:10:35;11.30;99.90
47616;DHT22;69146;52.266;7.000;2024-03-17T10:13:19;11.60;99.90
47616;DHT22;69146;52.266;7.000;2024-03-17T10:16:04;11.70;99.90
47616;DHT22;69146;52.266;7.000;2024-03-17T10:18:49;11.80;99.90
47616;DHT22;69146;52.266;7.000;2024-03-17T10:21:33;12.00;99.90
47616;DHT22;69146;52.266;7.000;2024-03-17T10:24:20;12.10;99.90
47616;DHT22;69146;52.266;7.000;2024-03-17T10:27:04;12.10;99.90
47616;DHT22;69146;52.266;7.000;2024-03-17T10:29:54;12.10;99.90
47616;DHT22;69146;52.266;7.000;2024-03-17T10:32:40;12.10;99.90
47616;DHT22;69146;52.266;7.000;2024-03-17T10:35:28;12.20;99.90
47616;DHT22;69146;52.266;7.000;2024-03-17T10:38:13;12.30;99.90
47616;DHT22;69146;52.266;7.000;2024-03-17T10:40:59;12.40;99.90
47616;DHT22;69146;52.266;7.000;2024-03-17T10:43:44;12.40;99.90
47616;DHT22;69146;52.266;7.000;2024-03-17T10:46:28;12.50;99.90
47616;DHT22;69146;52.266;7.000;2024-03-17T10:49:13;12.50;99.90
47616;DHT22;69146;52.266;7.000;2024-03-17T10:51:59;12.50;99.90
47616;DHT22;69146;52.266;7.000;2024-03-17T10:54:45;12.70;99.90
47616;DHT22;69146;52.266;7.000;2024-03-17T10:57:44;12.80;99.90
47616;DHT22;69146;52.266;7.000;2024-03-17T11:00:30;13.00;99.90
47616;DHT22;69146;52.266;7.000;2024-03-17T11:03:15;13.00;99.90
47616;DHT22;69146;52.266;7.000;2024-03-17T11:06:03;12.80;99.90
47616;DHT22;69146;52.266;7.000;2024-03-17T11:08:48;12.90;99.90
47616;DHT22;69146;52.266;7.000;2024-03-17T11:11:36;13.10;99.90
47616;DHT22;69146;52.266;7.000;2024-03-17T11:14:23;13.20;99.90
47616;DHT22;69146;52.266;7.000;2024-03-17T11:17:16;13.30;99.90
47616;DHT22;69146;52.266;7.000;2024-03-17T11:20:08;13.30;99.90
47616;DHT22;69146;52.266;7.000;2024-03-17T11:22:53;13.20;99.90
47616;DHT22;69146;52.266;7.000;2024-03-17T11:25:38;13.10;99.90
47616;DHT22;69146;52.266;7.000;2024-03-17T11:31:40;13.20;99.90
47616;DHT22;69146;52.266;7.000;2024-03-17T11:34:32;13.10;99.90
47616;DHT22;69146;52.266;7.000;2024-03-17T11:40:23;12.90;99.90
47616;DHT22;69146;52.266;7.000;2024-03-17T11:43:07;12.90;99.90
47616;DHT22;69146;52.266;7.000;2024-03-17T11:45:57;12.80;99.90
47616;DHT22;69146;52.266;7.000;2024-03-17T11:48:43;12.80;99.90
47616;DHT22;69146;52.266;7.000;2024-03-17T11:51:29;12.80;99.90
47616;DHT22;69146;52.266;7.000;2024-03-17T11:54:14;12.70;99.90
47616;DHT22;69146;52.266;7.000;2024-03-17T11:57:01;12.70;99.90
47616;DHT22;69146;52.266;7.000;2024-03-17T11:59:46;12.60;99.40
47616;DHT22;69146;52.266;7.000;2024-03-17T12:02:31;12.60;99.60
47616;DHT22;69146;52.266;7.000;2024-03-17T12:05:17;12.60;99.90
47616;DHT22;69146;52.266;7.000;2024-03-17T12:08:02;12.40;99.90
47616;DHT22;69146;52.266;7.000;2024-03-17T12:10:47;12.50;99.90
47616;DHT22;69146;52.266;7.000;2024-03-17T12:13:32;12.60;99.90
47616;DHT22;69146;52.266;7.000;2024-03-17T12:16:17;12.70;99.90
47616;DHT22;69146;52.266;7.000;2024-03-17T12:19:05;12.70;99.90
47616;DHT22;69146;52.266;7.000;2024-03-17T12:21:52;12.70;99.90
47616;DHT22;69146;52.266;7.000;2024-03-17T12:24:38;12.70;99.90
47616;DHT22;69146;52.266;7.000;2024-03-17T12:27:23;12.70;99.90
47616;DHT22;69146;52.266;7.000;2024-03-17T12:30:08;12.70;99.90
47616;DHT22;69146;52.266;7.000;2024-03-17T12:32:53;12.70;99.90
47616;DHT22;69146;52.266;7.000;2024-03-17T12:35:38;12.80;99.90
47616;DHT22;69146;52.266;7.000;2024-03-17T12:38:24;12.90;99.90
47616;DHT22;69146;52.266;7.000;2024-03-17T12:41:16;12.90;99.90
47616;DHT22;69146;52.266;7.000;2024-03-17T12:44:00;12.80;99.90
47616;DHT22;69146;52.266;7.000;2024-03-17T12:46:45;12.90;99.90
47616;DHT22;69146;52.266;7.000;2024-03-17T12:49:29;12.90;99.90
47616;DHT22;69146;52.266;7.000;2024-03-17T12:52:18;12.90;99.90
47616;DHT22;69146;52.266;7.000;2024-03-17T12:55:05;12.80;99.90
47616;DHT22;69146;52.266;7.000;2024-03-17T12:58:08;12.80;99.90
47616;DHT22;69146;52.266;7.000;2024-03-17T13:01:12;12.80;99.90
47616;DHT22;69146;52.266;7.000;2024-03-17T13:04:04;12.80;99.90
47616;DHT22;69146;52.266;7.000;2024-03-17T13:06:49;12.80;99.90
47616;DHT22;69146;52.266;7.000;2024-03-17T13:09:33;12.80;99.90
47616;DHT22;69146;52.266;7.000;2024-03-17T13:12:19;12.90;99.90
47616;DHT22;69146;52.266;7.000;2024-03-17T13:15:04;13.10;99.90
47616;DHT22;69146;52.266;7.000;2024-03-17T13:17:49;13.10;99.90
47616;DHT22;69146;52.266;7.000;2024-03-17T13:20:34;13.20;99.90
47616;DHT22;69146;52.266;7.000;2024-03-17T13:23:18;13.20;99.90
47616;DHT22;69146;52.266;7.000;2024-03-17T13:26:05;13.20;99.90
47616;DHT22;69146;52.266;7.000;2024-03-17T13:28:52;13.30;99.90
47616;DHT22;69146;52.266;7.000;2024-03-17T13:31:36;13.40;99.90
47616;DHT22;69146;52.266;7.000;2024-03-17T13:34:20;13.40;99.90
47616;DHT22;69146;52.266;7.000;2024-03-17T13:37:05;13.40;99.90
47616;DHT22;69146;52.266;7.000;2024-03-17T13:39:49;13.40;99.20
47616;DHT22;69146;52.266;7.000;2024-03-17T13:42:34;13.40;99.50
47616;DHT22;69146;52.266;7.000;2024-03-17T13:45:21;13.40;99.80
47616;DHT22;69146;52.266;7.000;2024-03-17T13:48:06;13.40;99.00
47616;DHT22;69146;52.266;7.000;2024-03-17T13:51:00;13.20;99.80
47616;DHT22;69146;52.266;7.000;2024-03-17T13:53:44;13.10;99.90
47616;DHT22;69146;52.266;7.000;2024-03-17T13:56:29;13.20;99.50
47616;DHT22;69146;52.266;7.000;2024-03-17T13:59:14;13.20;99.20
47616;DHT22;69146;52.266;7.000;2024-03-17T14:02:00;13.20;99.00
47616;DHT22;69146;52.266;7.000;2024-03-17T14:04:48;13.20;99.40
47616;DHT22;69146;52.266;7.000;2024-03-17T14:07:32;13.00;99.90
47616;DHT22;69146;52.266;7.000;2024-03-17T14:10:17;12.90;99.90
47616;DHT22;69146;52.266;7.000;2024-03-17T14:13:02;12.90;99.90
47616;DHT22;69146;52.266;7.000;2024-03-17T14:15:46;12.90;99.90
47616;DHT22;69146;52.266;7.000;2024-03-17T14:18:32;12.90;99.90
47616;DHT22;69146;52.266;7.000;2024-03-17T14:21:20;12.90;99.90
47616;DHT22;69146;52.266;7.000;2024-03-17T14:24:05;12.90;99.90
47616;DHT22;69146;52.266;7.000;2024-03-17T14:26:52;12.80;99.90
47616;DHT22;69146;52.266;7.000;2024-03-17T14:29:37;12.70;99.90
47616;DHT22;69146;52.266;7.000;2024-03-17T14:32:21;12.70;99.90
47616;DHT22;69146;52.266;7.000;2024-03-17T14:35:07;12.70;99.90
47616;DHT22;69146;52.266;7.000;2024-03-17T14:37:55;12.60;99.90
47616;DHT22;69146;52.266;7.000;2024-03-17T14:40:42;12.50;99.90
47616;DHT22;69146;52.266;7.000;2024-03-17T14:43:27;12.50;99.90
47616;DHT22;69146;52.266;7.000;2024-03-17T14:46:12;12.40;99.90
47616;DHT22;69146;52.266;7.000;2024-03-17T14:48:58;12.40;99.90
47616;DHT22;69146;52.266;7.000;2024-03-17T14:51:44;12.40;99.90
47616;DHT22;69146;52.266;7.000;2024-03-17T14:54:28;12.40;99.90
47616;DHT22;69146;52.266;7.000;2024-03-17T14:57:13;12.40;99.90
47616;DHT22;69146;52.266;7.000;2024-03-17T14:59:59;12.40;99.90
47616;DHT22;69146;52.266;7.000;2024-03-17T15:02:45;12.40;99.90
47616;DHT22;69146;52.266;7.000;2024-03-17T15:05:31;12.40;99.90
47616;DHT22;69146;52.266;7.000;2024-03-17T15:08:17;12.40;99.90
47616;DHT22;69146;52.266;7.000;2024-03-17T15:11:01;12.40;99.90
47616;DHT22;69146;52.266;7.000;2024-03-17T15:13:47;12.40;99.90
47616;DHT22;69146;52.266;7.000;2024-03-17T15:16:31;12.40;99.90
47616;DHT22;69146;52.266;7.000;2024-03-17T15:19:16;12.30;99.90
47616;DHT22;69146;52.266;7.000;2024-03-17T15:22:00;12.30;99.90
47616;DHT22;69146;52.266;7.000;2024-03-17T15:24:46;12.30;99.90
47616;DHT22;69146;52.266;7.000;2024-03-17T15:27:31;12.30;99.90
47616;DHT22;69146;52.266;7.000;2024-03-17T15:30:16;12.30;99.90
47616;DHT22;69146;52.266;7.000;2024-03-17T15:33:03;12.30;99.90
47616;DHT22;69146;52.266;7.000;2024-03-17T15:35:47;12.20;99.90
47616;DHT22;69146;52.266;7.000;2024-03-17T15:38:34;12.20;99.90
47616;DHT22;69146;52.266;7.000;2024-03-17T15:41:20;12.20;99.90
47616;DHT22;69146;52.266;7.000;2024-03-17T15:44:04;12.20;99.90
47616;DHT22;69146;52.266;7.000;2024-03-17T15:46:49;12.20;99.90
47616;DHT22;69146;52.266;7.000;2024-03-17T15:49:33;12.10;99.90
47616;DHT22;69146;52.266;7.000;2024-03-17T15:52:18;12.20;99.90
47616;DHT22;69146;52.266;7.000;2024-03-17T15:55:03;12.10;99.90
47616;DHT22;69146;52.266;7.000;2024-03-17T15:57:48;12.10;99.90
47616;DHT22;69146;52.266;7.000;2024-03-17T16:00:33;12.10;99.90
47616;DHT22;69146;52.266;7.000;2024-03-17T16:03:19;12.10;99.90
47616;DHT22;69146;52.266;7.000;2024-03-17T16:06:09;12.00;99.90
47616;DHT22;69146;52.266;7.000;2024-03-17T16:08:54;12.00;99.90
47616;DHT22;69146;52.266;7.000;2024-03-17T16:11:39;12.00;99.90
47616;DHT22;69146;52.266;7.000;2024-03-17T16:14:25;12.00;99.90
47616;DHT22;69146;52.266;7.000;2024-03-17T16:17:10;11.90;99.90
47616;DHT22;69146;52.266;7.000;2024-03-17T16:19:55;11.90;99.90
47616;DHT22;69146;52.266;7.000;2024-03-17T16:22:40;11.80;99.90
47616;DHT22;69146;52.266;7.000;2024-03-17T16:25:24;11.80;99.90
47616;DHT22;69146;52.266;7.000;2024-03-17T16:28:09;11.80;99.90
47616;DHT22;69146;52.266;7.000;2024-03-17T16:30:55;11.80;99.90
47616;DHT22;69146;52.266;7.000;2024-03-17T16:33:40;11.80;99.90
47616;DHT22;69146;52.266;7.000;2024-03-17T16:36:25;11.70;99.90
47616;DHT22;69146;52.266;7.000;2024-03-17T16:39:09;11.70;99.90
47616;DHT22;69146;52.266;7.000;2024-03-17T16:41:54;11.70;99.90
47616;DHT22;69146;52.266;7.000;2024-03-17T16:44:40;11.70;99.90
47616;DHT22;69146;52.266;7.000;2024-03-17T16:47:29;11.70;99.90
47616;DHT22;69146;52.266;7.000;2024-03-17T16:50:14;11.60;99.90
47616;DHT22;69146;52.266;7.000;2024-03-17T16:52:59;11.60;99.90
47616;DHT22;69146;52.266;7.000;2024-03-17T16:55:44;11.60;99.90
47616;DHT22;69146;52.266;7.000;2024-03-17T16:58:28;11.60;99.90
47616;DHT22;69146;52.266;7.000;2024-03-17T17:01:12;11.50;99.90
47616;DHT22;69146;52.266;7.000;2024-03-17T17:04:00;11.50;99.90
47616;DHT22;69146;52.266;7.000;2024-03-17T17:06:44;11.50;99.90
47616;DHT22;69146;52.266;7.000;2024-03-17T17:09:29;11.50;99.90
47616;DHT22;69146;52.266;7.000;2024-03-17T17:12:14;11.50;99.90
47616;DHT22;69146;52.266;7.000;2024-03-17T17:14:58;11.50;99.90
47616;DHT22;69146;52.266;7.000;2024-03-17T17:17:44;11.50;99.90
47616;DHT22;69146;52.266;7.000;2024-03-17T17:20:30;11.50;99.90
47616;DHT22;69146;52.266;7.000;2024-03-17T17:23:17;11.50;99.90
47616;DHT22;69146;52.266;7.000;2024-03-17T17:26:02;11.50;99.90
47616;DHT22;69146;52.266;7.000;2024-03-17T17:28:47;11.50;99.90
47616;DHT22;69146;52.266;7.000;2024-03-17T17:31:37;11.50;99.90
47616;DHT22;69146;52.266;7.000;2024-03-17T17:34:21;11.50;99.90
47616;DHT22;69146;52.266;7.000;2024-03-17T17:37:07;11.50;99.90
47616;DHT22;69146;52.266;7.000;2024-03-17T17:39:56;11.50;99.90
47616;DHT22;69146;52.266;7.000;2024-03-17T17:42:41;11.40;99.90